Time;durP1;ratioP1;P1;durP2;ratioP2;P2;SDS_P1;SDS_P2;PMS_P1;PMS_P2;Temp;Humidity;BMP_temperature;BMP_pressure;BME280_temperature;BME280_humidity;BME280_pressure;Samples;Min_cycle;Max_cycle;Signal;HPM_P1;HPM_P2
2024/01/27 00:00:14;;;;;;;8.95;3.90;;;6.80;70.20;;;;;;5065693;28;20078;-55
2024/01/27 00:02:41;;;;;;;11.60;4.07;;;6.70;70.30;;;;;;5066412;28;20045;-55
2024/01/27 00:05:10;;;;;;;7.60;3.28;;;6.70;70.20;;;;;;5064165;28;20083;-55
2024/01/27 00:07:37;;;;;;;9.38;3.33;;;6.70;70.20;;;;;;5066622;28;20064;-52
2024/01/27 00:10:06;;;;;;;11.02;4.35;;;6.70;70.30;;;;;;5071354;28;20032;-55
2024/01/27 00:12:40;;;;;;;8.65;3.72;;;6.70;70.30;;;;;;5063929;28;20119;-52
2024/01/27 00:15:09;;;;;;;9.52;2.90;;;6.60;70.30;;;;;;5063108;28;20128;-51
2024/01/27 00:17:42;;;;;;;8.93;3.28;;;6.70;70.40;;;;;;5063223;28;20067;-54
2024/01/27 00:20:09;;;;;;;12.45;3.88;;;6.60;70.40;;;;;;5066419;28;20032;-55
2024/01/27 00:22:41;;;;;;;11.30;4.00;;;6.60;70.50;;;;;;5061233;28;20120;-55
2024/01/27 00:25:11;;;;;;;17.00;4.20;;;6.60;70.60;;;;;;5070392;28;20106;-54
2024/01/27 00:27:38;;;;;;;10.73;3.72;;;6.60;70.60;;;;;;5066279;28;20457;-53
2024/01/27 00:30:05;;;;;;;9.13;3.40;;;6.60;70.60;;;;;;5071386;28;20398;-51
2024/01/27 00:32:33;;;;;;;8.00;2.85;;;6.60;70.70;;;;;;5068551;28;20044;-51
2024/01/27 00:35:02;;;;;;;12.77;4.30;;;6.50;70.70;;;;;;5060019;28;20060;-55
2024/01/27 00:37:29;;;;;;;6.65;3.47;;;6.50;70.70;;;;;;5071047;28;20052;-52
2024/01/27 00:39:56;;;;;;;11.27;3.33;;;6.50;70.80;;;;;;5071309;28;20458;-54
2024/01/27 00:42:27;;;;;;;9.55;3.22;;;6.50;70.80;;;;;;5062026;28;20552;-54
2024/01/27 00:44:56;;;;;;;10.52;3.83;;;6.40;70.70;;;;;;5068591;28;20037;-55
2024/01/27 00:47:24;;;;;;;8.18;3.10;;;6.50;70.80;;;;;;5069549;28;20410;-53
2024/01/27 00:49:54;;;;;;;10.55;2.95;;;6.40;70.80;;;;;;5071281;28;20539;-55
2024/01/27 00:52:21;;;;;;;7.10;3.20;;;6.40;70.90;;;;;;5060916;28;20044;-53
2024/01/27 00:54:55;;;;;;;9.57;3.28;;;6.40;70.90;;;;;;5071442;28;20797;-55
2024/01/27 00:57:27;;;;;;;9.55;3.05;;;6.40;70.90;;;;;;5068420;28;20044;-54
2024/01/27 00:59:58;;;;;;;7.25;3.38;;;6.40;71.00;;;;;;5065396;28;20039;-55
2024/01/27 01:02:25;;;;;;;10.55;4.15;;;6.40;71.00;;;;;;5066323;28;20127;-55
2024/01/27 01:04:51;;;;;;;9.82;4.35;;;6.40;71.10;;;;;;5065386;28;20098;-54
2024/01/27 01:07:33;;;;;;;7.80;3.60;;;6.30;71.20;;;;;;5069963;28;20047;-54
2024/01/27 01:10:04;;;;;;;9.45;4.85;;;6.30;71.20;;;;;;5070822;28;20148;-54
2024/01/27 01:12:34;;;;;;;13.45;4.18;;;6.30;71.20;;;;;;5062141;28;20040;-53
2024/01/27 01:15:06;;;;;;;13.70;4.75;;;6.30;71.20;;;;;;5061256;28;20128;-55
2024/01/27 01:17:35;;;;;;;12.68;4.75;;;6.30;71.30;;;;;;5055695;28;20056;-53
2024/01/27 01:20:02;;;;;;;9.20;3.97;;;6.30;71.20;;;;;;5064388;28;20028;-51
2024/01/27 01:22:29;;;;;;;12.63;3.65;;;6.30;71.30;;;;;;5064687;28;20037;-55
2024/01/27 01:25:03;;;;;;;9.07;3.83;;;6.20;71.30;;;;;;5064880;28;20044;-51
2024/01/27 01:27:30;;;;;;;14.98;3.67;;;6.20;71.30;;;;;;5065268;28;20143;-52
2024/01/27 01:29:57;;;;;;;8.85;3.65;;;6.20;71.30;;;;;;5070283;28;20491;-54
2024/01/27 01:32:26;;;;;;;9.35;3.22;;;6.20;71.40;;;;;;5062397;28;20099;-53
2024/01/27 01:34:58;;;;;;;10.73;3.83;;;6.20;71.40;;;;;;5062186;28;20565;-55
2024/01/27 01:37:27;;;;;;;7.38;3.63;;;6.20;71.40;;;;;;5063071;28;20059;-56
2024/01/27 01:39:55;;;;;;;10.98;4.07;;;6.20;71.60;;;;;;5065185;28;20039;-53
2024/01/27 01:42:24;;;;;;;8.15;3.78;;;6.20;71.60;;;;;;5063705;28;20041;-55
2024/01/27 01:44:55;;;;;;;9.20;4.40;;;6.20;71.60;;;;;;5067137;28;20036;-51
2024/01/27 01:47:22;;;;;;;9.70;4.10;;;6.20;71.60;;;;;;5066515;28;20442;-54
2024/01/27 01:49:49;;;;;;;11.75;3.92;;;6.20;71.60;;;;;;5069118;28;20455;-52
2024/01/27 01:52:20;;;;;;;10.60;4.30;;;6.20;71.60;;;;;;5064432;28;20426;-55
2024/01/27 01:54:51;;;;;;;16.27;4.35;;;6.20;71.70;;;;;;5070279;28;20052;-54
2024/01/27 01:57:21;;;;;;;9.85;4.03;;;6.10;71.60;;;;;;5069063;28;20109;-52
2024/01/27 01:59:49;;;;;;;8.45;4.32;;;6.20;71.60;;;;;;5061768;28;20115;-54
2024/01/27 02:02:18;;;;;;;8.10;4.07;;;6.20;71.60;;;;;;5062994;28;20042;-53
2024/01/27 02:04:48;;;;;;;6.72;3.90;;;6.10;71.60;;;;;;5065280;28;20028;-53
2024/01/27 02:07:15;;;;;;;11.30;4.18;;;6.10;71.70;;;;;;5069589;28;20056;-51
2024/01/27 02:09:42;;;;;;;9.77;4.38;;;6.10;71.70;;;;;;5051773;28;20095;-55
2024/01/27 02:12:11;;;;;;;11.00;4.60;;;6.10;71.80;;;;;;5059967;28;20041;-54
2024/01/27 02:14:40;;;;;;;14.38;5.13;;;6.10;71.80;;;;;;5060079;28;20048;-51
2024/01/27 02:17:10;;;;;;;10.35;4.40;;;6.10;71.70;;;;;;5063492;28;20380;-55
2024/01/27 02:19:38;;;;;;;9.65;5.05;;;6.10;71.80;;;;;;5060706;28;20051;-55
2024/01/27 02:22:06;;;;;;;11.77;4.38;;;6.10;71.80;;;;;;5063851;28;20107;-51
2024/01/27 02:24:36;;;;;;;13.52;5.63;;;6.00;71.80;;;;;;5065260;28;20119;-55
2024/01/27 02:27:03;;;;;;;12.63;5.38;;;6.00;71.80;;;;;;5065154;28;20040;-54
2024/01/27 02:29:30;;;;;;;10.73;4.82;;;6.00;71.90;;;;;;5068576;28;20043;-51
2024/01/27 02:31:56;;;;;;;10.50;4.25;;;6.00;71.90;;;;;;5062722;28;20115;-54
2024/01/27 02:34:23;;;;;;;13.02;4.60;;;6.00;71.90;;;;;;5060941;28;20052;-55
2024/01/27 02:36:50;;;;;;;13.23;5.53;;;6.00;72.00;;;;;;5061162;28;20068;-53
2024/01/27 02:39:19;;;;;;;12.93;4.95;;;6.00;72.00;;;;;;5064916;28;20055;-52
2024/01/27 02:41:48;;;;;;;8.63;4.55;;;5.90;72.10;;;;;;5063324;28;20063;-53
2024/01/27 02:44:17;;;;;;;11.70;4.63;;;6.00;72.20;;;;;;5065334;28;20059;-53
2024/01/27 02:46:44;;;;;;;15.00;5.68;;;6.00;72.20;;;;;;5066452;28;20098;-51
2024/01/27 02:49:11;;;;;;;13.98;5.20;;;5.90;72.10;;;;;;5065670;28;20564;-51
2024/01/27 02:51:42;;;;;;;9.15;5.00;;;5.90;72.10;;;;;;5060247;28;20043;-53
2024/01/27 02:54:09;;;;;;;10.30;5.15;;;5.90;72.20;;;;;;5068624;28;20060;-52
2024/01/27 02:56:36;;;;;;;10.93;5.40;;;5.90;72.10;;;;;;5068298;28;20044;-51
2024/01/27 02:59:06;;;;;;;14.13;4.70;;;5.90;72.10;;;;;;5064354;28;20044;-55
2024/01/27 03:01:34;;;;;;;10.48;4.82;;;5.90;72.10;;;;;;5061565;28;20132;-55
2024/01/27 03:04:03;;;;;;;12.80;5.30;;;5.90;72.10;;;;;;5063078;28;20047;-54
2024/01/27 03:06:30;;;;;;;16.40;5.50;;;5.90;72.10;;;;;;5064724;28;20068;-53
2024/01/27 03:08:57;;;;;;;11.48;4.90;;;5.90;72.10;;;;;;5069570;28;20056;-54
2024/01/27 03:11:25;;;;;;;11.55;5.07;;;5.90;72.20;;;;;;5067863;28;20044;-51
2024/01/27 03:13:55;;;;;;;18.45;6.13;;;5.90;72.30;;;;;;5063902;28;20041;-54
2024/01/27 03:16:21;;;;;;;13.10;5.45;;;5.90;72.30;;;;;;5059219;28;20105;-51
2024/01/27 03:18:52;;;;;;;14.20;6.03;;;5.90;72.30;;;;;;5060129;28;20045;-53
2024/01/27 03:21:19;;;;;;;12.82;5.72;;;5.80;72.30;;;;;;5060132;28;20084;-55
2024/01/27 03:23:51;;;;;;;10.80;4.80;;;5.80;72.30;;;;;;5059064;28;20118;-53
2024/01/27 03:26:20;;;;;;;10.63;5.13;;;5.80;72.20;;;;;;5060748;28;20039;-54
2024/01/27 03:28:51;;;;;;;10.45;5.30;;;5.80;72.20;;;;;;5069264;28;20120;-51
2024/01/27 03:31:23;;;;;;;10.38;4.45;;;5.80;72.30;;;;;;5061991;28;20086;-52
2024/01/27 03:33:57;;;;;;;9.05;4.63;;;5.80;72.30;;;;;;5058362;28;20036;-51
2024/01/27 03:36:23;;;;;;;9.43;4.30;;;5.80;72.30;;;;;;5064121;28;20130;-55
2024/01/27 03:38:56;;;;;;;13.68;4.78;;;5.80;72.30;;;;;;5066294;28;20041;-55
2024/01/27 03:41:29;;;;;;;12.60;5.13;;;5.80;72.40;;;;;;5064561;28;20041;-55
2024/01/27 03:43:55;;;;;;;10.75;4.50;;;5.80;72.40;;;;;;5065549;28;20116;-53
2024/01/27 03:46:24;;;;;;;14.77;4.60;;;5.80;72.30;;;;;;5068609;28;20037;-54
2024/01/27 03:48:51;;;;;;;11.60;4.53;;;5.80;72.30;;;;;;5064651;28;20052;-55
2024/01/27 03:51:21;;;;;;;9.35;3.97;;;5.70;72.30;;;;;;5046183;28;20041;-55
2024/01/27 03:53:50;;;;;;;12.07;4.70;;;5.70;72.30;;;;;;5068165;28;20045;-53
2024/01/27 03:56:22;;;;;;;7.68;4.75;;;5.70;72.40;;;;;;5063195;28;20122;-54
2024/01/27 03:58:53;;;;;;;9.45;4.38;;;5.70;72.40;;;;;;5062226;28;20744;-55
2024/01/27 04:01:24;;;;;;;11.98;4.03;;;5.80;72.40;;;;;;5061895;28;20045;-53
2024/01/27 04:03:53;;;;;;;10.20;4.85;;;5.70;72.40;;;;;;5062658;28;20058;-56
2024/01/27 04:06:22;;;;;;;8.63;4.57;;;5.70;72.40;;;;;;5068603;28;20071;-53
2024/01/27 04:08:49;;;;;;;10.15;4.68;;;5.70;72.40;;;;;;5068468;28;20055;-54
2024/01/27 04:11:24;;;;;;;10.60;4.97;;;5.70;72.40;;;;;;5062971;28;20060;-52
2024/01/27 04:13:56;;;;;;;12.25;4.47;;;5.70;72.40;;;;;;5061594;28;20607;-53
2024/01/27 04:16:29;;;;;;;8.82;4.03;;;5.70;72.40;;;;;;5059980;28;20039;-55
2024/01/27 04:18:56;;;;;;;14.00;4.13;;;5.70;72.40;;;;;;5061268;28;20124;-54
2024/01/27 04:21:23;;;;;;;11.57;4.82;;;5.70;72.40;;;;;;5063145;28;20040;-54
2024/01/27 04:23:53;;;;;;;17.23;5.38;;;5.70;72.50;;;;;;5061769;28;20041;-55
2024/01/27 04:26:22;;;;;;;8.57;4.45;;;5.70;72.50;;;;;;5063579;28;20044;-54
2024/01/27 04:28:51;;;;;;;7.75;4.57;;;5.60;72.50;;;;;;5070728;28;20044;-54
2024/01/27 04:31:22;;;;;;;10.43;4.38;;;5.70;72.50;;;;;;5063479;28;20055;-55
2024/01/27 04:33:48;;;;;;;9.73;5.13;;;5.60;72.40;;;;;;5048245;28;20498;-53
2024/01/27 04:36:32;;;;;;;9.52;4.47;;;5.60;72.40;;;;;;5068224;28;20048;-55
2024/01/27 04:38:59;;;;;;;14.65;5.65;;;5.70;72.40;;;;;;5069596;28;20051;-55
2024/01/27 04:41:28;;;;;;;10.57;4.63;;;5.60;72.40;;;;;;5065126;28;20409;-52
2024/01/27 04:43:58;;;;;;;13.57;5.20;;;5.60;72.40;;;;;;5068878;28;20044;-53
2024/01/27 04:46:25;;;;;;;12.70;5.20;;;5.60;72.40;;;;;;5071416;28;20422;-53
2024/01/27 04:48:52;;;;;;;10.00;4.93;;;5.60;72.50;;;;;;5068251;28;20036;-51
2024/01/27 04:51:32;;;;;;;13.57;5.20;;;5.60;72.50;;;;;;5067775;28;20048;-53
2024/01/27 04:53:59;;;;;;;10.68;5.03;;;5.60;72.50;;;;;;5069060;28;20407;-55
2024/01/27 04:56:28;;;;;;;13.15;4.60;;;5.60;72.50;;;;;;5071342;28;20068;-54
2024/01/27 04:58:59;;;;;;;11.35;5.15;;;5.60;72.50;;;;;;5068081;28;20083;-52
2024/01/27 05:01:28;;;;;;;9.32;4.97;;;5.60;72.60;;;;;;5060587;28;20579;-52
2024/01/27 05:03:55;;;;;;;12.48;5.13;;;5.60;72.60;;;;;;5066245;28;20040;-54
2024/01/27 05:06:32;;;;;;;;;;;5.50;72.50;;;;;;5071343;28;20498;-51
2024/01/27 05:09:02;;;;;;;13.98;4.63;;;5.60;72.70;;;;;;5070848;28;19956;-55
2024/01/27 05:11:31;;;;;;;13.82;5.50;;;5.60;72.40;;;;;;5067833;28;20052;-56
2024/01/27 05:13:59;;;;;;;15.10;5.72;;;5.60;72.30;;;;;;5061304;28;20079;-51
2024/01/27 05:16:25;;;;;;;14.30;5.75;;;5.50;72.40;;;;;;5058095;28;20109;-53
2024/01/27 05:18:52;;;;;;;12.45;5.85;;;5.50;72.40;;;;;;5065136;28;20127;-54
2024/01/27 05:21:19;;;;;;;13.35;5.15;;;5.50;72.40;;;;;;5060690;28;20045;-52
2024/01/27 05:23:46;;;;;;;12.85;5.50;;;5.50;72.50;;;;;;5061193;28;20387;-52
2024/01/27 05:26:14;;;;;;;15.98;6.05;;;5.50;72.50;;;;;;5068528;28;20504;-51
2024/01/27 05:28:45;;;;;;;13.50;6.20;;;5.50;72.50;;;;;;5070470;28;20087;-54
2024/01/27 05:31:18;;;;;;;16.75;6.07;;;5.50;72.60;;;;;;5063682;28;20127;-51
2024/01/27 05:33:46;;;;;;;18.48;6.00;;;5.50;72.60;;;;;;5066763;28;20450;-52
2024/01/27 05:36:16;;;;;;;12.15;5.40;;;5.50;72.60;;;;;;5066168;28;20059;-54
2024/01/27 05:38:43;;;;;;;12.75;5.03;;;5.50;72.60;;;;;;5070818;28;20044;-52
2024/01/27 05:41:13;;;;;;;12.23;5.78;;;5.50;72.70;;;;;;5066825;28;20040;-51
2024/01/27 05:43:40;;;;;;;12.50;5.35;;;5.50;72.70;;;;;;5068596;28;20040;-54
2024/01/27 05:46:11;;;;;;;;;;;5.50;72.70;;;;;;5070493;28;20047;-53
2024/01/27 05:48:42;;;;;;;10.68;5.85;;;5.50;72.70;;;;;;5070566;28;19920;-51
2024/01/27 05:51:09;;;;;;;15.07;6.28;;;5.50;72.40;;;;;;5050439;28;20044;-51
2024/01/27 05:53:38;;;;;;;12.00;5.70;;;5.50;72.50;;;;;;5063484;28;20060;-52
2024/01/27 05:56:07;;;;;;;11.35;5.22;;;5.40;72.50;;;;;;5066950;28;20554;-53
2024/01/27 05:58:35;;;;;;;12.80;5.25;;;5.40;72.50;;;;;;5067669;28;20621;-55
2024/01/27 06:01:02;;;;;;;14.20;5.40;;;5.40;72.60;;;;;;5065737;28;20486;-51
2024/01/27 06:03:33;;;;;;;13.27;5.43;;;5.40;72.70;;;;;;5067109;28;20521;-52
2024/01/27 06:06:04;;;;;;;14.88;5.82;;;5.40;72.80;;;;;;5068441;28;20090;-54
2024/01/27 06:08:36;;;;;;;10.10;5.28;;;5.40;72.80;;;;;;5068975;28;20048;-55
2024/01/27 06:11:03;;;;;;;12.32;5.93;;;5.40;72.80;;;;;;5063839;28;20049;-54
2024/01/27 06:13:34;;;;;;;16.23;5.70;;;5.40;72.80;;;;;;5068726;28;20045;-52
2024/01/27 06:16:01;;;;;;;13.38;5.50;;;5.40;72.90;;;;;;5054543;28;20044;-52
2024/01/27 06:18:32;;;;;;;14.65;5.63;;;5.40;72.90;;;;;;5057742;28;20045;-55
2024/01/27 06:21:04;;;;;;;12.02;5.93;;;5.40;73.00;;;;;;5053490;28;20050;-52
2024/01/27 06:23:30;;;;;;;15.70;5.90;;;5.40;73.00;;;;;;5063015;28;20040;-55
2024/01/27 06:25:59;;;;;;;12.05;5.22;;;5.40;73.00;;;;;;5067047;28;20049;-53
2024/01/27 06:28:27;;;;;;;14.57;5.63;;;5.30;72.90;;;;;;5068758;28;20037;-52
2024/01/27 06:30:56;;;;;;;14.65;5.70;;;5.30;72.90;;;;;;5065370;28;20083;-53
2024/01/27 06:33:24;;;;;;;12.88;5.50;;;5.30;72.90;;;;;;5063236;28;20076;-52
2024/01/27 06:35:59;;;;;;;18.30;6.57;;;5.30;72.90;;;;;;5066904;28;20109;-52
2024/01/27 06:38:27;;;;;;;14.00;6.82;;;5.30;72.90;;;;;;5069035;28;20048;-53
2024/01/27 06:40:54;;;;;;;11.90;6.50;;;5.30;72.90;;;;;;5048142;28;20048;-52
2024/01/27 06:43:21;;;;;;;19.08;7.35;;;5.30;72.90;;;;;;5061583;28;20430;-53
2024/01/27 06:45:48;;;;;;;20.25;7.13;;;5.30;73.00;;;;;;5068301;28;20098;-51
2024/01/27 06:48:14;;;;;;;16.23;6.55;;;5.30;73.00;;;;;;5068409;28;20068;-54
2024/01/27 06:50:41;;;;;;;13.85;6.40;;;5.30;73.00;;;;;;5061695;28;20613;-55
2024/01/27 06:53:11;;;;;;;16.42;7.28;;;5.20;73.00;;;;;;5030117;28;1042014;-52
2024/01/27 06:55:38;;;;;;;13.63;6.13;;;5.20;73.00;;;;;;5069097;28;20410;-53
2024/01/27 06:58:09;;;;;;;15.13;6.15;;;5.30;73.00;;;;;;5069406;28;20044;-55
2024/01/27 07:00:35;;;;;;;17.70;6.25;;;5.20;73.00;;;;;;5066622;28;20114;-54
2024/01/27 07:03:09;;;;;;;10.77;5.00;;;5.20;73.00;;;;;;5063681;28;20041;-54
2024/01/27 07:05:42;;;;;;;12.98;5.53;;;5.20;73.00;;;;;;5069518;28;20040;-51
2024/01/27 07:08:11;;;;;;;12.65;5.53;;;5.20;73.00;;;;;;5070023;28;20044;-53
2024/01/27 07:10:41;;;;;;;;;;;5.20;73.00;;;;;;5068830;28;20040;-51
2024/01/27 07:13:07;;;;;;;15.90;5.60;;;5.20;73.30;;;;;;5048770;28;19948;-54
2024/01/27 07:15:38;;;;;;;17.95;6.38;;;5.20;72.80;;;;;;5045434;28;20098;-54
2024/01/27 07:18:05;;;;;;;15.93;6.88;;;5.20;72.90;;;;;;5057763;28;20411;-58
2024/01/27 07:20:35;;;;;;;15.50;7.30;;;5.20;73.00;;;;;;5048994;28;20522;-56
2024/01/27 07:23:02;;;;;;;17.77;8.63;;;5.20;73.10;;;;;;5062205;28;20045;-57
2024/01/27 07:25:29;;;;;;;17.10;7.20;;;5.20;73.30;;;;;;5062909;28;20044;-56
2024/01/27 07:27:58;;;;;;;16.33;7.20;;;5.20;73.30;;;;;;5067142;28;20044;-58
2024/01/27 07:30:27;;;;;;;21.75;9.10;;;5.10;73.30;;;;;;5067040;28;20048;-57
2024/01/27 07:32:56;;;;;;;15.02;7.97;;;5.10;73.30;;;;;;5060482;28;20077;-58
2024/01/27 07:35:28;;;;;;;14.65;7.25;;;5.10;73.30;;;;;;5060844;28;20080;-56
2024/01/27 07:37:57;;;;;;;11.43;5.50;;;5.10;73.30;;;;;;5065875;28;20134;-57
2024/01/27 07:40:31;;;;;;;14.45;7.85;;;5.10;73.40;;;;;;5064832;28;20498;-57
2024/01/27 07:43:00;;;;;;;15.55;6.18;;;5.10;73.40;;;;;;5067325;28;20064;-56
2024/01/27 07:45:29;;;;;;;15.10;6.63;;;5.20;73.50;;;;;;5067936;28;20110;-58
2024/01/27 07:47:58;;;;;;;12.73;6.68;;;5.10;73.50;;;;;;5068296;28;20056;-58
2024/01/27 07:50:37;;;;;;;17.65;6.15;;;5.10;73.50;;;;;;5060640;28;20112;-57
2024/01/27 07:53:05;;;;;;;11.48;5.70;;;5.20;73.60;;;;;;5066389;28;20086;-58
2024/01/27 07:55:33;;;;;;;15.73;5.65;;;5.20;73.60;;;;;;5057394;28;20047;-57
2024/01/27 07:58:00;;;;;;;14.82;5.28;;;5.20;73.60;;;;;;5071210;28;20454;-57
2024/01/27 08:00:28;;;;;;;15.07;5.68;;;5.20;73.60;;;;;;5070378;28;20071;-56
2024/01/27 08:02:57;;;;;;;12.38;5.70;;;5.20;73.70;;;;;;5068163;28;20032;-58
2024/01/27 08:05:24;;;;;;;15.60;5.65;;;5.20;73.70;;;;;;5056824;28;20462;-58
2024/01/27 08:07:51;;;;;;;13.38;6.28;;;5.20;73.80;;;;;;5057860;28;20037;-57
2024/01/27 08:10:18;;;;;;;11.30;5.93;;;5.20;73.80;;;;;;5068350;28;20033;-56
2024/01/27 08:12:47;;;;;;;12.40;5.28;;;5.20;73.80;;;;;;5058713;28;20513;-58
2024/01/27 08:15:14;;;;;;;12.02;5.35;;;5.20;73.80;;;;;;5065171;28;20123;-57
2024/01/27 08:17:44;;;;;;;14.27;6.05;;;5.20;73.80;;;;;;5058116;28;20033;-57
2024/01/27 08:20:11;;;;;;;13.18;5.38;;;5.30;74.00;;;;;;5068005;28;20044;-58
2024/01/27 08:22:38;;;;;;;15.18;6.55;;;5.30;74.00;;;;;;5070956;28;20537;-58
2024/01/27 08:25:05;;;;;;;13.38;5.75;;;5.30;74.10;;;;;;5069324;28;20044;-56
2024/01/27 08:27:32;;;;;;;12.23;5.28;;;5.30;74.10;;;;;;5062439;28;20045;-57
2024/01/27 08:29:59;;;;;;;15.27;6.00;;;5.40;74.10;;;;;;5063722;28;20403;-56
2024/01/27 08:32:26;;;;;;;16.58;7.57;;;5.40;74.00;;;;;;5065143;28;20066;-56
2024/01/27 08:34:53;;;;;;;12.82;6.03;;;5.40;74.00;;;;;;5067040;28;20044;-56
2024/01/27 08:37:20;;;;;;;16.15;5.43;;;5.40;74.60;;;;;;5070285;28;20767;-57
2024/01/27 08:39:51;;;;;;;14.23;5.47;;;5.40;74.00;;;;;;5070868;28;20041;-57
2024/01/27 08:42:20;;;;;;;12.27;7.00;;;5.40;74.00;;;;;;5070471;28;20053;-57
2024/01/27 08:44:47;;;;;;;17.05;7.25;;;5.50;74.10;;;;;;5068758;28;20449;-58
2024/01/27 08:47:14;;;;;;;16.35;7.25;;;5.50;74.00;;;;;;5063191;28;20064;-57
2024/01/27 08:49:41;;;;;;;15.75;8.30;;;5.50;74.10;;;;;;5066267;28;20119;-58
2024/01/27 08:52:08;;;;;;;13.10;6.90;;;5.50;74.10;;;;;;5061719;28;20179;-57
2024/01/27 08:54:35;;;;;;;15.65;6.70;;;5.50;74.20;;;;;;5060335;28;20048;-57
2024/01/27 08:57:02;;;;;;;12.05;6.20;;;5.60;74.30;;;;;;5070156;28;20047;-57
2024/01/27 08:59:29;;;;;;;15.10;5.75;;;5.60;74.20;;;;;;5065781;28;20052;-58
2024/01/27 09:01:55;;;;;;;10.20;4.95;;;5.60;74.20;;;;;;5062015;28;20119;-57
2024/01/27 09:04:22;;;;;;;12.85;4.55;;;5.70;74.20;;;;;;5066048;28;20047;-58
2024/01/27 09:06:49;;;;;;;17.85;5.47;;;5.60;74.20;;;;;;5071463;28;20413;-58
2024/01/27 09:09:16;;;;;;;11.02;5.35;;;5.70;74.30;;;;;;5066566;28;20048;-57
2024/01/27 09:11:42;;;;;;;14.55;7.53;;;5.70;74.30;;;;;;5064659;28;20048;-57
2024/01/27 09:14:09;;;;;;;18.33;7.35;;;5.80;74.30;;;;;;5059750;28;20044;-58
2024/01/27 09:16:36;;;;;;;13.13;6.63;;;5.80;74.30;;;;;;5064092;28;20064;-58
2024/01/27 09:19:03;;;;;;;14.57;6.00;;;5.80;74.30;;;;;;5067755;28;20486;-58
2024/01/27 09:21:32;;;;;;;16.45;6.30;;;5.90;74.50;;;;;;5064011;28;20039;-57
2024/01/27 09:24:01;;;;;;;12.75;6.15;;;5.90;74.40;;;;;;5067218;28;20040;-58
2024/01/27 09:26:27;;;;;;;14.40;6.07;;;5.90;74.40;;;;;;5070382;28;20040;-58
2024/01/27 09:28:54;;;;;;;12.60;5.95;;;6.00;74.40;;;;;;5065918;28;20130;-57
2024/01/27 09:31:25;;;;;;;12.05;5.93;;;6.00;74.40;;;;;;5061972;28;20453;-58
2024/01/27 09:33:53;;;;;;;10.77;4.43;;;6.10;74.50;;;;;;5047629;28;20155;-57
2024/01/27 09:36:21;;;;;;;11.35;5.53;;;6.10;74.40;;;;;;5067378;28;20040;-57
2024/01/27 09:38:48;;;;;;;8.25;5.00;;;6.20;74.40;;;;;;5056429;28;20072;-57
2024/01/27 09:41:15;;;;;;;13.52;6.22;;;6.20;74.40;;;;;;5062194;28;20087;-56
2024/01/27 09:43:44;;;;;;;19.52;6.38;;;6.30;74.30;;;;;;5063074;28;20094;-58
2024/01/27 09:46:12;;;;;;;12.00;5.88;;;6.30;74.20;;;;;;5067335;28;20037;-58
2024/01/27 09:48:40;;;;;;;11.45;5.93;;;6.40;74.10;;;;;;5061557;28;20045;-58
2024/01/27 09:51:08;;;;;;;13.88;5.78;;;6.40;74.10;;;;;;5061448;28;20397;-57
2024/01/27 09:53:35;;;;;;;12.98;4.88;;;6.50;74.10;;;;;;5058421;28;20106;-58
2024/01/27 09:56:06;;;;;;;12.90;4.53;;;6.50;74.00;;;;;;5060621;28;20514;-57
2024/01/27 09:58:33;;;;;;;10.18;4.20;;;6.60;74.10;;;;;;5062034;28;20079;-57
2024/01/27 10:01:00;;;;;;;10.02;4.35;;;6.60;74.00;;;;;;5064260;28;20044;-58
2024/01/27 10:03:29;;;;;;;9.80;4.50;;;6.70;73.90;;;;;;5055814;28;20693;-58
2024/01/27 10:05:57;;;;;;;11.35;4.22;;;6.80;73.80;;;;;;5056524;28;20037;-57
2024/01/27 10:08:24;;;;;;;12.98;5.00;;;6.80;73.80;;;;;;5062048;28;20056;-56
2024/01/27 10:10:54;;;;;;;8.07;4.50;;;6.90;73.70;;;;;;5064780;28;20116;-58
2024/01/27 10:13:26;;;;;;;13.20;4.45;;;6.90;73.60;;;;;;5063546;28;20053;-58
2024/01/27 10:16:06;;;;;;;7.22;4.22;;;7.00;73.50;;;;;;5055799;28;20049;-58
2024/01/27 10:18:34;;;;;;;7.57;3.92;;;7.00;73.30;;;;;;5064282;28;20098;-58
2024/01/27 10:21:16;;;;;;;11.10;4.70;;;7.10;73.30;;;;;;5055778;28;20437;-58
2024/01/27 10:23:48;;;;;;;10.45;4.07;;;7.10;73.20;;;;;;5062415;28;20459;-58
2024/01/27 10:26:15;;;;;;;11.60;3.85;;;7.20;73.30;;;;;;5059702;28;20076;-57
2024/01/27 10:28:55;;;;;;;9.13;3.95;;;7.20;73.20;;;;;;5069247;28;20398;-57
2024/01/27 10:31:38;;;;;;;6.25;3.67;;;7.30;73.40;;;;;;5065691;28;20048;-57
2024/01/27 10:34:14;;;;;;;14.90;4.13;;;7.30;72.90;;;;;;5045291;28;20051;-57
2024/01/27 10:36:46;;;;;;;11.73;3.92;;;7.40;73.00;;;;;;5058390;28;20024;-57
2024/01/27 10:39:22;;;;;;;7.68;4.05;;;7.40;72.80;;;;;;5069602;28;20055;-57
2024/01/27 10:41:50;;;;;;;12.70;4.10;;;7.50;72.90;;;;;;5062637;28;20044;-57
2024/01/27 10:44:21;;;;;;;7.03;3.60;;;7.50;73.00;;;;;;5064103;28;20044;-57
2024/01/27 10:46:52;;;;;;;9.20;3.63;;;7.50;72.80;;;;;;5069451;28;20608;-57
2024/01/27 10:49:23;;;;;;;9.27;3.97;;;7.60;72.70;;;;;;5065806;28;20046;-57
2024/01/27 10:51:57;;;;;;;8.18;3.55;;;7.60;72.80;;;;;;5062093;28;20120;-58
2024/01/27 10:54:28;;;;;;;9.30;3.90;;;7.70;72.80;;;;;;5067959;28;20040;-57
2024/01/27 10:57:02;;;;;;;10.93;3.92;;;7.60;72.60;;;;;;5067545;28;20465;-57
2024/01/27 10:59:39;;;;;;;11.88;3.95;;;7.70;72.60;;;;;;5063546;28;20529;-57
2024/01/27 11:02:13;;;;;;;10.00;3.53;;;7.80;72.60;;;;;;5062497;28;20517;-57
2024/01/27 11:04:44;;;;;;;7.25;3.65;;;7.80;72.40;;;;;;5064725;28;20449;-55
2024/01/27 11:07:12;;;;;;;8.80;3.53;;;7.80;72.50;;;;;;5069086;28;20379;-58
2024/01/27 11:09:42;;;;;;;7.50;3.60;;;7.80;72.40;;;;;;5068887;28;20075;-57
2024/01/27 11:12:09;;;;;;;12.38;3.67;;;7.90;72.50;;;;;;5066832;28;20481;-58
2024/01/27 11:14:40;;;;;;;8.85;4.20;;;7.90;72.50;;;;;;5046758;28;20052;-57
2024/01/27 11:17:09;;;;;;;9.23;3.70;;;7.90;72.40;;;;;;5051591;28;20110;-58
2024/01/27 11:19:35;;;;;;;10.77;3.95;;;8.00;72.40;;;;;;5061422;28;20052;-57
2024/01/27 11:22:03;;;;;;;8.30;3.53;;;8.00;72.30;;;;;;5055359;28;20032;-57
2024/01/27 11:24:30;;;;;;;7.10;3.17;;;8.10;72.40;;;;;;5063063;28;20045;-58
2024/01/27 11:27:06;;;;;;;10.23;3.45;;;8.10;72.30;;;;;;5065590;28;20040;-58
2024/01/27 11:29:46;;;;;;;8.85;3.67;;;8.20;72.00;;;;;;5067188;28;20111;-58
2024/01/27 11:32:13;;;;;;;9.77;3.67;;;8.20;72.10;;;;;;5047032;28;20044;-58
2024/01/27 11:34:44;;;;;;;8.45;3.17;;;8.30;72.10;;;;;;5064872;28;20500;-58
2024/01/27 11:37:13;;;;;;;8.07;3.20;;;8.30;71.90;;;;;;5072120;28;20055;-58
2024/01/27 11:39:40;;;;;;;13.07;3.55;;;8.40;71.80;;;;;;5068534;28;20124;-58
2024/01/27 11:42:12;;;;;;;10.45;3.67;;;8.40;71.60;;;;;;5060498;28;20044;-58
2024/01/27 11:44:40;;;;;;;;;;;8.50;71.40;;;;;;5057057;28;20118;-58
2024/01/27 11:47:15;;;;;;;9.38;2.70;;;8.60;71.50;;;;;;5061898;28;20457;-58
2024/01/27 11:49:43;;;;;;;8.10;2.92;;;8.60;70.60;;;;;;5061321;28;20048;-57
2024/01/27 11:52:11;;;;;;;11.07;3.17;;;8.70;70.50;;;;;;5062611;28;20049;-58
2024/01/27 11:54:41;;;;;;;8.13;2.80;;;8.70;70.20;;;;;;5062774;28;20520;-56
2024/01/27 11:57:08;;;;;;;9.77;2.80;;;8.70;69.80;;;;;;5066091;28;20056;-57
2024/01/27 11:59:37;;;;;;;5.38;2.53;;;8.80;69.60;;;;;;5062739;28;20040;-58
2024/01/27 12:02:05;;;;;;;8.65;2.83;;;8.80;69.40;;;;;;5065293;28;20065;-57
2024/01/27 12:04:31;;;;;;;10.63;2.28;;;8.90;69.40;;;;;;5053050;28;20044;-57
2024/01/27 12:06:59;;;;;;;7.75;2.75;;;9.00;68.90;;;;;;5064124;28;20037;-58
2024/01/27 12:09:26;;;;;;;7.25;2.85;;;9.00;68.50;;;;;;5064479;28;20048;-58
2024/01/27 12:11:53;;;;;;;7.88;3.03;;;9.00;68.30;;;;;;5062002;28;20051;-58
2024/01/27 12:14:20;;;;;;;6.65;2.85;;;9.10;68.10;;;;;;5055703;28;20037;-58
2024/01/27 12:16:47;;;;;;;12.88;3.00;;;9.10;67.90;;;;;;5063660;28;20040;-58
2024/01/27 12:19:14;;;;;;;6.32;2.28;;;9.10;67.50;;;;;;5067237;28;20524;-58
2024/01/27 12:21:48;;;;;;;9.00;3.78;;;9.20;67.40;;;;;;5071472;28;20087;-58
2024/01/27 12:24:18;;;;;;;6.38;3.65;;;9.20;66.70;;;;;;5070936;28;20048;-58
2024/01/27 12:26:48;;;;;;;6.90;3.28;;;9.20;67.00;;;;;;5063521;28;20161;-58
2024/01/27 12:29:17;;;;;;;9.77;2.80;;;9.20;67.10;;;;;;5054387;28;20444;-58
2024/01/27 12:31:44;;;;;;;8.68;3.00;;;9.30;67.00;;;;;;5066728;28;20069;-57
2024/01/27 12:34:11;;;;;;;8.68;2.60;;;9.30;66.80;;;;;;5066198;28;20127;-57
2024/01/27 12:36:44;;;;;;;7.88;3.10;;;9.40;66.80;;;;;;5067656;28;20449;-58
2024/01/27 12:39:11;;;;;;;9.15;2.83;;;9.40;66.40;;;;;;5071155;28;20036;-58
2024/01/27 12:41:40;;;;;;;6.68;3.42;;;9.40;66.70;;;;;;5067984;28;20055;-58
2024/01/27 12:44:07;;;;;;;10.10;3.95;;;9.40;66.80;;;;;;5062187;28;20041;-58
2024/01/27 12:46:34;;;;;;;5.55;3.17;;;9.50;66.70;;;;;;5055846;28;20099;-58
2024/01/27 12:49:01;;;;;;;7.47;3.33;;;9.50;66.50;;;;;;5062418;28;20108;-57
2024/01/27 12:51:27;;;;;;;9.27;3.92;;;9.60;66.30;;;;;;5065312;28;20041;-58
2024/01/27 12:53:54;;;;;;;10.93;3.75;;;9.60;66.00;;;;;;5064326;28;20123;-58
2024/01/27 12:56:21;;;;;;;11.43;4.78;;;9.60;65.70;;;;;;5065005;28;20040;-58
2024/01/27 12:58:48;;;;;;;10.98;4.32;;;9.60;65.40;;;;;;5071566;28;20454;-58